createdAt,value
2022-10-29T00:01:34.115Z,16.93
2022-10-29T00:04:18.972Z,16.99
2022-10-29T00:07:03.725Z,17.03
2022-10-29T00:09:48.585Z,17.06
2022-10-29T00:12:33.312Z,17.09
2022-10-29T00:15:18.084Z,17.12
2022-10-29T00:18:02.839Z,17.16
2022-10-29T00:20:47.635Z,17.21
2022-10-29T00:23:32.463Z,17.19
2022-10-29T00:26:17.330Z,17.18
2022-10-29T00:29:02.241Z,17.17
2022-10-29T00:31:46.861Z,17.10
2022-10-29T00:34:31.534Z,17.15
2022-10-29T00:37:16.426Z,17.17
2022-10-29T00:40:01.135Z,17.17
2022-10-29T00:42:45.773Z,17.15
2022-10-29T00:45:30.573Z,17.10
2022-10-29T00:48:15.403Z,17.04
2022-10-29T00:51:00.167Z,17.00
2022-10-29T00:53:44.975Z,16.93
2022-10-29T00:56:29.677Z,16.94
2022-10-29T00:59:14.526Z,16.88
2022-10-29T01:01:59.181Z,16.82
2022-10-29T01:04:44.441Z,16.79
2022-10-29T01:07:29.607Z,16.73
2022-10-29T01:10:14.285Z,16.68
2022-10-29T01:12:59.105Z,16.72
2022-10-29T01:15:44.326Z,16.68
2022-10-29T01:18:29.069Z,16.64
2022-10-29T01:21:13.672Z,16.67
2022-10-29T01:23:58.483Z,16.67
2022-10-29T01:26:43.207Z,16.66
2022-10-29T01:29:28.197Z,16.66
2022-10-29T01:32:12.840Z,16.66
2022-10-29T01:34:57.723Z,16.64
2022-10-29T01:37:42.393Z,16.60
2022-10-29T01:40:27.217Z,16.56
2022-10-29T01:43:11.942Z,16.55
2022-10-29T01:45:56.698Z,16.47
2022-10-29T01:48:41.570Z,16.46
2022-10-29T01:51:26.386Z,16.43
2022-10-29T01:54:11.307Z,16.38
2022-10-29T01:56:55.913Z,16.35
2022-10-29T01:59:51.502Z,16.28
2022-10-29T02:02:43.308Z,16.22
2022-10-29T02:05:32.213Z,16.21
2022-10-29T02:08:17.070Z,16.20
2022-10-29T02:11:01.672Z,16.19
2022-10-29T02:13:46.405Z,16.16
2022-10-29T02:16:31.074Z,16.13
2022-10-29T02:19:15.846Z,16.14
2022-10-29T02:22:00.604Z,16.12
2022-10-29T02:24:45.324Z,16.12
2022-10-29T02:27:30.193Z,16.13
2022-10-29T02:30:14.907Z,16.10
2022-10-29T02:32:59.938Z,16.10
2022-10-29T02:35:44.761Z,16.05
2022-10-29T02:38:29.692Z,15.99
2022-10-29T02:41:14.294Z,16.02
2022-10-29T02:43:59.077Z,15.98
2022-10-29T02:46:43.719Z,16.02
2022-10-29T02:49:28.505Z,15.98
2022-10-29T02:52:13.383Z,15.99
2022-10-29T02:54:58.141Z,15.95
2022-10-29T02:57:42.879Z,15.92
2022-10-29T03:00:27.610Z,15.87
2022-10-29T03:03:12.522Z,15.88
2022-10-29T03:05:57.336Z,15.81
2022-10-29T03:08:42.222Z,15.75
2022-10-29T03:11:26.881Z,15.75
2022-10-29T03:14:11.697Z,15.72
2022-10-29T03:16:56.443Z,15.73
2022-10-29T03:19:41.281Z,15.72
2022-10-29T03:22:26.095Z,15.70
2022-10-29T03:25:10.803Z,15.69
2022-10-29T03:27:55.982Z,15.74
2022-10-29T03:30:40.715Z,15.74
2022-10-29T03:33:25.551Z,15.73
2022-10-29T03:36:10.347Z,15.72
2022-10-29T03:38:55.106Z,15.69
2022-10-29T03:41:39.785Z,15.70
2022-10-29T03:44:24.686Z,15.70
2022-10-29T03:47:09.327Z,15.67
2022-10-29T03:49:54.122Z,15.67
2022-10-29T03:52:38.961Z,15.62
2022-10-29T03:55:23.553Z,15.59
2022-10-29T03:58:08.270Z,15.59
2022-10-29T04:00:52.905Z,15.56
2022-10-29T04:03:37.780Z,15.53
2022-10-29T04:06:22.588Z,15.51
2022-10-29T04:09:07.398Z,15.52
2022-10-29T04:11:52.052Z,15.50
2022-10-29T04:14:41.334Z,15.47
2022-10-29T04:17:30.941Z,15.48
2022-10-29T04:20:40.565Z,15.48
2022-10-29T04:29:30.267Z,15.31
2022-10-29T04:32:15.058Z,15.30
2022-10-29T04:34:59.690Z,15.28
2022-10-29T04:37:44.522Z,15.25
2022-10-29T04:40:29.286Z,15.27
2022-10-29T04:43:13.997Z,15.22
2022-10-29T04:45:58.665Z,15.23
2022-10-29T04:48:43.417Z,15.25
2022-10-29T04:51:28.080Z,15.24
2022-10-29T04:54:12.902Z,15.24
2022-10-29T04:56:57.713Z,15.19
2022-10-29T04:59:42.503Z,15.22
2022-10-29T05:02:27.341Z,15.22
2022-10-29T05:05:11.928Z,15.16
2022-10-29T05:07:56.775Z,15.09
2022-10-29T05:10:41.378Z,15.15
2022-10-29T05:13:26.269Z,15.14
2022-10-29T05:16:11.038Z,15.13
2022-10-29T05:18:55.821Z,15.12
2022-10-29T05:21:40.373Z,15.10
2022-10-29T05:24:25.156Z,15.10
2022-10-29T05:27:10.053Z,15.07
2022-10-29T05:29:54.794Z,15.06
2022-10-29T05:32:39.421Z,15.07
2022-10-29T05:35:24.151Z,15.06
2022-10-29T05:38:09.004Z,15.04
2022-10-29T05:40:53.680Z,15.04
2022-10-29T05:43:38.535Z,14.96
2022-10-29T05:46:23.246Z,14.99
2022-10-29T05:49:08.025Z,14.99
2022-10-29T05:51:52.951Z,15.02
2022-10-29T05:54:37.696Z,14.99
2022-10-29T05:57:22.560Z,14.99
2022-10-29T06:00:07.453Z,14.98
2022-10-29T06:02:52.383Z,15.01
2022-10-29T06:05:37.515Z,15.05
2022-10-29T06:08:22.336Z,15.08
2022-10-29T06:11:07.053Z,15.08
2022-10-29T06:13:51.933Z,15.11
2022-10-29T06:16:36.587Z,15.17
2022-10-29T06:19:21.379Z,15.23
2022-10-29T06:22:06.121Z,15.23
2022-10-29T06:24:51.040Z,15.28
2022-10-29T06:27:35.785Z,15.29
2022-10-29T06:30:20.610Z,15.34
2022-10-29T06:33:05.381Z,15.40
2022-10-29T06:35:50.043Z,15.42
2022-10-29T06:38:34.765Z,15.44
2022-10-29T06:41:19.506Z,15.46
2022-10-29T06:44:04.347Z,15.53
2022-10-29T06:46:48.962Z,15.57
2022-10-29T06:49:33.702Z,15.65
2022-10-29T06:52:18.363Z,15.72
2022-10-29T06:55:03.163Z,15.81
2022-10-29T06:57:47.900Z,15.88
2022-10-29T07:00:32.664Z,15.93
2022-10-29T07:03:17.745Z,16.01
2022-10-29T07:06:02.440Z,16.10
2022-10-29T07:08:47.255Z,16.22
2022-10-29T07:11:31.819Z,16.35
2022-10-29T07:14:16.725Z,16.90
2022-10-29T07:17:01.373Z,17.56
2022-10-29T07:19:46.192Z,18.02
2022-10-29T07:22:34.764Z,18.36
2022-10-29T07:25:19.999Z,18.49
2022-10-29T07:28:04.818Z,18.45
2022-10-29T07:30:49.378Z,18.53
2022-10-29T07:33:34.235Z,18.51
2022-10-29T07:36:18.949Z,18.47
2022-10-29T07:39:03.719Z,18.39
2022-10-29T07:41:48.508Z,18.35
2022-10-29T07:44:33.308Z,18.34
2022-10-29T07:47:18.274Z,18.36
2022-10-29T07:50:03.092Z,18.35
2022-10-29T07:52:47.950Z,18.32
2022-10-29T07:55:32.673Z,18.36
2022-10-29T07:58:17.399Z,18.41
2022-10-29T08:01:02.618Z,18.45
2022-10-29T08:03:47.844Z,18.49
2022-10-29T08:06:32.635Z,18.53
2022-10-29T08:09:17.379Z,18.60
2022-10-29T08:12:02.224Z,18.70
2022-10-29T08:14:46.929Z,18.75
2022-10-29T08:17:31.739Z,18.83
2022-10-29T08:20:16.378Z,18.89
2022-10-29T08:23:01.560Z,18.83
2022-10-29T08:25:46.754Z,18.92
2022-10-29T08:28:35.544Z,19.06
2022-10-29T08:31:20.930Z,19.19
2022-10-29T08:34:10.787Z,19.24
2022-10-29T08:36:56.334Z,19.32
2022-10-29T08:39:41.183Z,19.38
2022-10-29T08:42:25.960Z,19.42
2022-10-29T08:45:10.544Z,19.45
2022-10-29T08:47:55.521Z,19.56
2022-10-29T08:50:40.669Z,19.64
2022-10-29T08:53:28.661Z,19.72
2022-10-29T08:56:15.876Z,19.86
2022-10-29T08:59:00.647Z,19.93
2022-10-29T09:01:45.530Z,20.01
2022-10-29T09:04:30.233Z,20.08
2022-10-29T09:07:15.112Z,20.17
2022-10-29T09:09:59.813Z,20.26
2022-10-29T09:12:44.578Z,20.32
2022-10-29T09:15:29.341Z,20.37
2022-10-29T09:18:14.054Z,20.40
2022-10-29T09:20:58.747Z,20.46
2022-10-29T09:23:43.326Z,20.47
2022-10-29T09:26:27.992Z,20.46
2022-10-29T09:29:12.697Z,20.50
2022-10-29T09:31:57.477Z,20.52
2022-10-29T09:34:42.210Z,20.61
2022-10-29T09:37:26.913Z,20.67
2022-10-29T09:40:11.728Z,20.74
2022-10-29T09:42:56.679Z,20.82
2022-10-29T09:45:41.727Z,20.84
2022-10-29T09:48:26.586Z,20.82
2022-10-29T09:51:11.358Z,20.80
2022-10-29T09:53:56.251Z,20.62
2022-10-29T09:56:41.033Z,20.56
2022-10-29T09:59:25.942Z,20.52
2022-10-29T10:02:10.830Z,20.68
2022-10-29T10:04:55.668Z,20.85
2022-10-29T10:07:40.454Z,21.06
2022-10-29T10:10:25.168Z,21.08
2022-10-29T10:13:15.828Z,21.16
2022-10-29T10:16:02.404Z,21.23
2022-10-29T10:18:47.044Z,21.18
2022-10-29T10:21:31.824Z,21.33
2022-10-29T10:24:16.466Z,21.27
2022-10-29T10:27:01.327Z,21.35
2022-10-29T10:29:46.131Z,21.27
2022-10-29T10:32:30.905Z,21.33
2022-10-29T10:35:15.839Z,21.30
2022-10-29T10:38:01.052Z,21.31
2022-10-29T10:40:45.744Z,21.36
2022-10-29T10:43:30.594Z,21.54
2022-10-29T10:46:15.455Z,21.61
2022-10-29T10:49:00.126Z,21.48
2022-10-29T10:51:44.899Z,21.46
2022-10-29T10:54:29.753Z,21.44
2022-10-29T10:57:14.779Z,21.55
2022-10-29T10:59:59.494Z,21.54
2022-10-29T11:02:44.412Z,21.61
2022-10-29T11:05:29.231Z,21.58
2022-10-29T11:08:13.886Z,21.69
2022-10-29T11:10:59.768Z,21.87
2022-10-29T11:13:44.535Z,21.91
2022-10-29T11:16:29.253Z,22.06
2022-10-29T11:19:13.917Z,22.21
2022-10-29T11:21:58.704Z,22.15
2022-10-29T11:24:43.580Z,21.98
2022-10-29T11:27:28.399Z,22.10
2022-10-29T11:30:13.130Z,21.96
2022-10-29T11:32:58.211Z,22.16
2022-10-29T11:35:43.573Z,22.25
2022-10-29T11:38:28.326Z,22.31
2022-10-29T11:41:13.058Z,22.29
2022-10-29T11:43:57.785Z,22.38
2022-10-29T11:46:42.506Z,22.37
2022-10-29T11:49:27.200Z,22.26
2022-10-29T11:52:12.182Z,22.22
2022-10-29T11:54:56.914Z,22.13
2022-10-29T11:57:41.661Z,22.10
2022-10-29T12:00:26.589Z,21.91
2022-10-29T12:03:11.411Z,21.98
2022-10-29T12:05:56.203Z,22.20
2022-10-29T12:08:41.019Z,22.22
2022-10-29T12:11:25.679Z,22.30
2022-10-29T12:14:10.494Z,22.47
2022-10-29T12:16:55.271Z,22.52
2022-10-29T12:19:40.000Z,22.55
2022-10-29T12:22:24.796Z,22.56
2022-10-29T12:25:09.611Z,22.49
2022-10-29T12:27:54.465Z,22.39
2022-10-29T12:30:39.315Z,22.20
2022-10-29T12:33:23.992Z,22.15
2022-10-29T12:36:09.008Z,22.13
2022-10-29T12:38:53.570Z,22.09
2022-10-29T12:41:38.240Z,22.03
2022-10-29T12:44:22.931Z,21.88
2022-10-29T12:47:07.785Z,21.83
2022-10-29T12:49:52.489Z,21.85
2022-10-29T12:52:37.436Z,21.98
2022-10-29T12:55:22.197Z,22.07
2022-10-29T12:58:06.953Z,22.15
2022-10-29T13:00:51.838Z,22.26
2022-10-29T13:03:41.372Z,22.36
2022-10-29T13:06:27.183Z,22.44
2022-10-29T13:09:12.024Z,22.54
2022-10-29T13:11:56.685Z,22.54
2022-10-29T13:14:41.418Z,22.59
2022-10-29T13:17:26.150Z,22.62
2022-10-29T13:20:10.957Z,22.67
2022-10-29T13:22:55.786Z,22.70
2022-10-29T13:25:41.053Z,22.71
2022-10-29T13:28:25.956Z,22.75
2022-10-29T13:31:10.804Z,22.78
2022-10-29T13:33:55.554Z,22.77
2022-10-29T13:36:40.351Z,22.78
2022-10-29T13:39:25.202Z,22.79
2022-10-29T13:42:09.886Z,22.81
2022-10-29T13:44:54.692Z,22.80
2022-10-29T13:47:39.377Z,22.81
2022-10-29T13:50:24.258Z,22.80
2022-10-29T13:53:13.131Z,22.77
2022-10-29T13:55:58.406Z,22.75
2022-10-29T13:58:43.147Z,22.74
2022-10-29T14:01:28.045Z,22.72
2022-10-29T14:04:13.031Z,22.68
2022-10-29T14:06:57.895Z,22.67
2022-10-29T14:09:42.630Z,22.61
2022-10-29T14:12:27.526Z,22.60
2022-10-29T14:15:12.211Z,22.56
2022-10-29T14:17:56.931Z,22.53
2022-10-29T14:20:41.601Z,22.52
2022-10-29T14:23:26.395Z,22.51
2022-10-29T14:26:10.999Z,22.44
2022-10-29T14:28:55.794Z,22.33
2022-10-29T14:31:40.563Z,22.27
2022-10-29T14:34:25.420Z,22.22
2022-10-29T14:37:10.222Z,22.26
2022-10-29T14:39:58.594Z,22.25
2022-10-29T14:42:43.851Z,22.21
2022-10-29T14:45:28.712Z,22.19
2022-10-29T14:48:13.986Z,22.16
2022-10-29T14:50:58.660Z,22.06
2022-10-29T14:53:43.356Z,21.92
2022-10-29T14:56:28.357Z,21.94
2022-10-29T14:59:13.093Z,21.92
2022-10-29T15:02:05.790Z,21.91
2022-10-29T15:04:56.264Z,21.89
2022-10-29T15:07:41.185Z,21.86
2022-10-29T15:10:25.792Z,21.85
2022-10-29T15:13:10.573Z,21.78
2022-10-29T15:15:55.315Z,21.79
2022-10-29T15:18:40.027Z,21.80
2022-10-29T15:21:24.697Z,21.79
2022-10-29T15:24:09.410Z,21.84
2022-10-29T15:26:54.161Z,21.76
2022-10-29T15:29:42.879Z,21.74
2022-10-29T15:32:30.589Z,21.69
2022-10-29T15:35:16.438Z,21.66
2022-10-29T15:38:01.160Z,21.62
2022-10-29T15:40:46.010Z,21.57
2022-10-29T15:43:30.795Z,21.51
2022-10-29T15:46:15.596Z,21.43
2022-10-29T15:49:00.305Z,21.35
2022-10-29T15:51:45.141Z,21.25
2022-10-29T15:54:29.925Z,21.16
2022-10-29T15:57:14.690Z,21.04
2022-10-29T15:59:59.582Z,20.96
2022-10-29T16:02:44.141Z,20.93
2022-10-29T16:05:28.978Z,20.79
2022-10-29T16:08:13.732Z,20.69
2022-10-29T16:10:58.521Z,20.73
2022-10-29T16:13:43.819Z,20.67
2022-10-29T16:16:28.627Z,20.58
2022-10-29T16:19:13.166Z,20.62
2022-10-29T16:22:00.662Z,20.52
2022-10-29T16:24:45.737Z,20.50
2022-10-29T16:27:30.391Z,20.55
2022-10-29T16:30:15.096Z,20.69
2022-10-29T16:33:00.315Z,20.69
2022-10-29T16:35:45.564Z,20.80
2022-10-29T16:38:30.300Z,20.86
2022-10-29T16:41:15.118Z,20.97
2022-10-29T16:43:59.885Z,20.98
2022-10-29T16:46:44.786Z,20.80
2022-10-29T16:49:29.482Z,20.57
2022-10-29T16:52:17.456Z,20.55
2022-10-29T16:55:05.911Z,20.65
2022-10-29T16:57:50.601Z,20.71
2022-10-29T17:00:35.330Z,20.85
2022-10-29T17:03:20.059Z,20.89
2022-10-29T17:06:04.732Z,20.81
2022-10-29T17:08:49.493Z,20.71
2022-10-29T17:11:34.216Z,20.62
2022-10-29T17:14:19.037Z,20.75
2022-10-29T17:17:03.776Z,20.87
2022-10-29T17:19:48.658Z,20.71
2022-10-29T17:22:33.517Z,20.39
2022-10-29T17:25:18.248Z,20.33
2022-10-29T17:28:02.998Z,20.64
2022-10-29T17:30:47.789Z,20.78
2022-10-29T17:33:32.653Z,20.97
2022-10-29T17:36:17.157Z,21.00
2022-10-29T17:39:02.052Z,21.03
2022-10-29T17:41:46.798Z,21.08
2022-10-29T17:44:31.599Z,20.95
2022-10-29T17:47:16.262Z,21.05
2022-10-29T17:50:01.140Z,20.94
2022-10-29T17:52:46.068Z,20.76
2022-10-29T17:55:30.729Z,20.78
2022-10-29T17:58:18.113Z,20.58
2022-10-29T18:01:03.422Z,20.58
2022-10-29T18:03:48.697Z,20.62
2022-10-29T18:06:33.373Z,20.36
2022-10-29T18:09:20.367Z,20.29
2022-10-29T18:12:06.048Z,20.35
2022-10-29T18:14:50.877Z,20.22
2022-10-29T18:17:35.553Z,20.28
2022-10-29T18:20:20.855Z,20.40
2022-10-29T18:23:05.564Z,20.20
2022-10-29T18:25:50.387Z,20.08
2022-10-29T18:28:35.049Z,20.12
2022-10-29T18:31:19.804Z,19.80
2022-10-29T18:34:04.429Z,19.62
2022-10-29T18:36:49.227Z,19.40
2022-10-29T18:39:34.489Z,19.23
2022-10-29T18:42:19.279Z,19.21
2022-10-29T18:45:04.001Z,19.02
2022-10-29T18:47:48.778Z,18.77
2022-10-29T18:50:33.510Z,18.82
2022-10-29T18:53:18.328Z,18.83
2022-10-29T18:56:03.231Z,18.99
2022-10-29T18:58:47.848Z,18.87
2022-10-29T19:01:32.786Z,18.85
2022-10-29T19:04:17.993Z,19.03
2022-10-29T19:07:02.790Z,19.31
2022-10-29T19:09:47.436Z,19.28
2022-10-29T19:12:32.220Z,19.18
2022-10-29T19:15:16.784Z,19.01
2022-10-29T19:18:01.590Z,19.02
2022-10-29T19:20:46.262Z,19.23
2022-10-29T19:23:31.041Z,19.35
2022-10-29T19:26:15.832Z,19.17
2022-10-29T19:29:00.730Z,19.08
2022-10-29T19:31:45.572Z,19.13
2022-10-29T19:34:30.329Z,19.43
2022-10-29T19:37:15.077Z,19.74
2022-10-29T19:39:59.683Z,19.77
2022-10-29T19:42:44.562Z,19.45
2022-10-29T19:45:29.396Z,19.26
2022-10-29T19:48:14.192Z,19.08
2022-10-29T19:50:58.997Z,19.06
2022-10-29T19:53:43.760Z,18.97
2022-10-29T19:56:28.692Z,18.84
2022-10-29T19:59:13.481Z,18.93
2022-10-29T20:01:58.417Z,18.96
2022-10-29T20:04:43.500Z,18.96
2022-10-29T20:07:28.373Z,18.79
2022-10-29T20:10:13.161Z,18.55
2022-10-29T20:12:58.083Z,18.41
2022-10-29T20:15:42.737Z,18.24
2022-10-29T20:18:27.560Z,18.20
2022-10-29T20:21:12.374Z,18.16
2022-10-29T20:23:57.116Z,18.09
2022-10-29T20:26:41.826Z,18.00
2022-10-29T20:29:26.538Z,17.87
2022-10-29T20:32:11.383Z,17.81
2022-10-29T20:34:56.042Z,17.77
2022-10-29T20:37:40.764Z,17.73
2022-10-29T20:40:25.437Z,17.66
2022-10-29T20:43:10.226Z,17.59
2022-10-29T20:45:55.073Z,17.51
2022-10-29T20:48:39.966Z,17.46
2022-10-29T20:51:24.872Z,17.49
2022-10-29T20:54:09.641Z,17.48
2022-10-29T20:56:54.450Z,17.45
2022-10-29T20:59:39.107Z,17.42
2022-10-29T21:02:24.131Z,17.40
2022-10-29T21:05:09.271Z,17.40
2022-10-29T21:07:54.203Z,17.39
2022-10-29T21:10:39.172Z,17.36
2022-10-29T21:13:24.044Z,17.25
2022-10-29T21:16:08.770Z,17.26
2022-10-29T21:18:53.495Z,17.21
2022-10-29T21:21:38.265Z,17.18
2022-10-29T21:24:22.927Z,17.13
2022-10-29T21:27:07.745Z,17.15
2022-10-29T21:29:52.543Z,17.13
2022-10-29T21:32:37.263Z,17.11
2022-10-29T21:35:21.894Z,17.11
2022-10-29T21:38:06.727Z,17.09
2022-10-29T21:40:51.389Z,17.06
2022-10-29T21:43:36.316Z,17.03
2022-10-29T21:46:21.057Z,17.01
2022-10-29T21:49:05.753Z,16.97
2022-10-29T21:51:50.483Z,16.99
2022-10-29T21:54:35.428Z,16.93
2022-10-29T21:57:20.808Z,16.87
2022-10-29T22:00:05.606Z,16.86
2022-10-29T22:02:50.331Z,16.81
2022-10-29T22:05:34.996Z,16.79
2022-10-29T22:08:19.812Z,16.75
2022-10-29T22:11:04.914Z,16.77
2022-10-29T22:13:49.567Z,16.73
2022-10-29T22:16:35.049Z,16.73
2022-10-29T22:19:19.735Z,16.74
2022-10-29T22:22:04.588Z,16.73
2022-10-29T22:24:49.407Z,16.75
2022-10-29T22:27:34.198Z,16.75
2022-10-29T22:30:18.916Z,16.78
2022-10-29T22:33:03.716Z,16.80
2022-10-29T22:35:48.625Z,16.80
2022-10-29T22:38:33.411Z,16.77
2022-10-29T22:41:18.274Z,16.77
2022-10-29T22:44:02.929Z,16.76
2022-10-29T22:46:47.760Z,16.72
2022-10-29T22:49:32.464Z,16.69
2022-10-29T22:52:17.324Z,16.66
2022-10-29T22:55:01.983Z,16.67
2022-10-29T22:57:46.774Z,16.65
2022-10-29T23:00:31.522Z,16.63
2022-10-29T23:03:16.308Z,16.62
2022-10-29T23:06:00.999Z,16.58
2022-10-29T23:08:45.962Z,16.57
2022-10-29T23:11:30.650Z,16.57
2022-10-29T23:14:15.290Z,16.56
2022-10-29T23:17:00.160Z,16.55
2022-10-29T23:19:44.757Z,16.46
2022-10-29T23:22:29.500Z,16.45
2022-10-29T23:25:14.063Z,16.39
2022-10-29T23:27:59.004Z,16.43
2022-10-29T23:30:43.732Z,16.40
2022-10-29T23:33:28.489Z,16.43
2022-10-29T23:36:13.147Z,16.40
2022-10-29T23:38:58.115Z,16.40
2022-10-29T23:41:42.809Z,16.41
2022-10-29T23:44:27.570Z,16.39
2022-10-29T23:47:12.289Z,16.39
2022-10-29T23:49:56.975Z,16.35
2022-10-29T23:52:41.746Z,16.30
2022-10-29T23:55:26.555Z,16.35
2022-10-29T23:58:11.227Z,16.36
